Latest Weather Observations for Amberley

IDQ60901

Issued at 10:21 am EST Thursday 21 November 2019 (issued every 10 minutes, with the page automatically refreshed every 10 minutes)

About weather observations | Map of Brisbane area stations | Latest observations for Brisbane area | Other Formats
Station Details ID: 040004 Name: AMBERLEY AMO Lat: -27.63 Lon: 152.71 Height: 24.2 m
Data from the previous 72 hours. | See also: Recent months at Amberley
Date/Time
EST
Temp
°C
App
Temp
°C
Dew
Point
°C
Rel
Hum
%
Delta-T
°C
Wind Press
QNH
hPa
Press
MSL
hPa
Rain since
9am
mm
Dir  Spd
km/h
Gust
km/h
Spd
kts
Gust
kts
21/10:00am 29.2 27.7 16.4 46 8.0 NE 19 30 10 16 1017.9 1017.8 0.0
21/09:30am 27.5 26.6 15.8 48 7.2 ENE 15 24 8 13 1018.3 1018.2 0.0
21/09:00am 26.9 25.7 17.4 56 6.0 ENE 20 32 11 17 1018.4 1018.3 0.0
21/08:30am 26.4 24.8 17.5 58 5.6 ENE 22 30 12 16 1018.4 1018.3 0.0
21/08:00am 26.0 24.7 18.2 62 4.9 ENE 22 32 12 17 1018.5 1018.4 0.0
21/07:30am 25.5 24.2 18.2 64 4.6 ENE 22 32 12 17 1018.6 1018.5 0.0
21/07:00am 24.7 23.2 18.6 69 3.9 ENE 24 33 13 18 1018.3 1018.2 0.0
21/06:30am 23.7 22.9 18.1 71 3.5 ENE 19 26 10 14 1018.1 1018.0 0.0
21/06:00am 23.6 23.7 19.1 76 2.9 ENE 17 24 9 13 1017.8 1017.7 0.0
21/05:30am 23.2 23.8 19.4 79 2.4 ENE 15 22 8 12 1017.4 1017.3 0.0
21/05:19am 23.2 23.9 19.6 80 2.3 ENE 15 20 8 11 1017.3 1017.2 0.0
21/05:00am 23.2 23.5 19.6 80 2.3 E 17 20 9 11 1016.9 1016.8 0.0
21/04:40am 23.2 23.5 19.6 80 2.3 E 17 20 9 11 1016.7 1016.6 0.0
21/04:30am 23.4 23.8 19.8 80 2.3 E 17 22 9 12 1016.6 1016.5 0.0
21/04:00am 23.7 24.0 19.6 78 2.6 ENE 17 20 9 11 1016.2 1016.1 0.0
21/03:30am 23.7 25.1 19.6 78 2.6 NE 11 13 6 7 1015.9 1015.8 0.0
21/03:00am 23.7 24.0 19.6 78 2.6 ENE 17 24 9 13 1015.7 1015.6 0.0
21/02:30am 23.3 24.4 19.7 80 2.3 ENE 13 17 7 9 1015.5 1015.4 0.0
21/02:00am 23.6 24.2 19.5 78 2.6 NE 15 20 8 11 1015.5 1015.4 0.0
21/01:30am 23.8 24.5 19.7 78 2.6 NE 15 20 8 11 1015.6 1015.5 0.0
21/01:00am 23.8 24.1 19.7 78 2.6 ENE 17 24 9 13 1015.7 1015.6 0.0
21/12:30am 24.0 24.1 19.9 78 2.6 ENE 19 26 10 14 1015.9 1015.8 0.0
21/12:00am 24.4 24.6 20.1 77 2.8 ENE 19 26 10 14 1015.9 1015.8 0.0
 
Date/Time
EST
Temp
°C
App
Temp
°C
Dew
Point
°C
Rel
Hum
%
Delta-T
°C
Wind Press
QNH
hPa
Press
MSL
hPa
Rain since
9am
mm
Dir  Spd
km/h
Gust
km/h
Spd
kts
Gust
kts
20/11:30pm 24.7 24.7 20.2 76 2.9 ENE 20 28 11 15 1016.0 1015.9 0.0
20/11:00pm 24.7 25.3 20.2 76 2.9 E 17 20 9 11 1016.0 1015.9 0.0
20/10:30pm 25.0 25.5 20.0 74 3.2 E 17 26 9 14 1016.0 1015.9 0.0
20/10:00pm 25.1 25.0 19.9 73 3.4 ENE 20 26 11 14 1016.0 1015.9 0.0
20/09:30pm 25.3 24.7 19.7 71 3.6 ENE 22 30 12 16 1015.7 1015.6 0.0
20/09:00pm 25.4 24.6 20.0 72 3.5 E 24 32 13 17 1015.5 1015.4 0.0
20/08:30pm 25.4 25.3 20.0 72 3.5 E 20 28 11 15 1015.0 1014.9 0.0
20/08:00pm 25.4 24.6 20.0 72 3.5 E 24 33 13 18 1014.4 1014.3 0.0
20/07:30pm 25.0 23.3 19.8 73 3.4 E 28 37 15 20 1013.4 1013.3 0.0
20/07:00pm 25.3 23.4 19.4 70 3.8 E 28 37 15 20 1012.8 1012.7 0.0
20/06:30pm 26.0 24.1 19.4 67 4.3 E 28 39 15 21 1011.9 1011.8 0.0
20/06:00pm 26.9 24.3 19.5 64 4.8 ENE 32 41 17 22 1010.7 1010.6 0.0
20/05:30pm 28.3 26.2 19.8 60 5.6 E 30 41 16 22 1009.7 1009.6 0.0
20/05:00pm 29.6 27.0 19.6 55 6.5 E 32 39 17 21 1008.9 1008.8 0.0
20/04:30pm 31.3 27.7 18.6 46 8.2 ENE 35 44 19 24 1008.4 1008.3 0.0
20/04:00pm 32.5 29.8 19.7 46 8.5 ENE 33 44 18 24 1008.2 1008.1 0.0
20/03:30pm 34.4 31.0 17.6 37 10.8 ENE 32 39 17 21 1008.0 1007.9 0.0
20/03:00pm 35.9 32.6 17.1 32 12.1 ENE 30 35 16 19 1008.0 1007.9 0.0
20/02:30pm 36.1 32.7 15.8 30 12.8 NE 28 35 15 19 1008.0 1007.9 0.0
20/02:00pm 36.5 33.8 15.6 29 13.2 ENE 24 35 13 19 1008.1 1008.0 0.0
20/01:30pm 37.2 33.3 7.2 16 16.8 E 17 32 9 17 1008.4 1008.3 0.0
20/01:00pm 37.3 35.0 10.6 20 15.8 E 13 20 7 11 1009.0 1008.9 0.0
20/12:30pm 36.3 34.4 11.9 23 14.6 NE 13 19 7 10 1009.5 1009.4 0.0
20/12:00pm 35.2 33.8 12.2 25 13.8 NNW 11 19 6 10 1010.1 1010.0 0.0
20/11:30am 35.2 33.2 12.8 26 13.5 NW 15 22 8 12 1010.6 1010.5 0.0
20/11:00am 33.5 33.4 15.9 34 11.1 W 11 17 6 9 1011.2 1011.1 0.0
20/10:30am 32.5 32.1 16.3 37 10.2 WNW 13 22 7 12 1011.7 1011.6 0.0
20/10:00am 31.6 31.7 17.5 43 9.0 NW 13 22 7 12 1012.3 1012.2 0.0
20/09:30am 29.5 30.6 18.0 50 7.3 NNW 9 15 5 8 1012.7 1012.6 0.0
20/09:00am 28.6 30.0 18.7 55 6.4 NW 9 17 5 9 1013.1 1013.0 0.0
20/08:30am 27.3 28.3 18.6 59 5.6 NW 11 19 6 10 1013.5 1013.4 0.0
20/08:00am 25.8 27.3 19.0 66 4.4 WNW 9 13 5 7 1014.0 1013.9 0.0
20/07:30am 24.3 27.3 18.5 70 3.7 CALM 0 6 0 3 1014.1 1014.0 0.0
20/07:00am 23.0 25.6 18.3 75 2.9 SW 2 7 1 4 1014.3 1014.2 0.0
20/06:30am 20.9 23.7 17.9 83 1.9 CALM 0 0 0 0 1014.0 1013.9 0.0
20/06:00am 19.4 22.0 17.5 89 1.2 CALM 0 0 0 0 1014.0 1013.9 0.0
20/05:30am 18.3 20.7 17.0 92 0.8 CALM 0 0 0 0 1013.8 1013.7 0.0
20/05:00am 17.5 19.6 16.2 92 0.8 CALM 0 0 0 0 1013.6 1013.5 0.0
20/04:30am 18.1 20.4 16.8 92 0.8 CALM 0 0 0 0 1013.3 1013.2 0.0
20/04:00am 18.1 20.3 16.6 91 0.9 CALM 0 6 0 3 1012.9 1012.8 0.0
20/03:30am 18.6 20.3 17.1 91 0.9 SW 4 7 2 4 1012.8 1012.7 0.0
20/03:00am 18.7 19.8 17.0 90 1.0 SW 7 9 4 5 1012.7 1012.6 0.0
20/02:30am 19.8 20.4 17.6 87 1.3 SSW 11 13 6 7 1012.6 1012.5 0.0
20/02:00am 20.3 21.4 18.1 87 1.4 SSW 9 11 5 6 1012.7 1012.6 0.0
20/01:30am 20.8 22.6 18.7 88 1.3 SSW 7 9 4 5 1012.7 1012.6 0.0
20/01:00am 20.5 21.4 18.4 88 1.3 S 11 11 6 6 1012.8 1012.7 0.0
20/12:30am 20.4 21.1 18.0 86 1.5 SSE 11 13 6 7 1012.9 1012.8 0.0
20/12:00am 20.7 21.7 17.7 83 1.9 ESE 9 9 5 5 1013.0 1012.9 0.0
 
Date/Time
EST
Temp
°C
App
Temp
°C
Dew
Point
°C
Rel
Hum
%
Delta-T
°C
Wind Press
QNH
hPa
Press
MSL
hPa
Rain since
9am
mm
Dir  Spd
km/h
Gust
km/h
Spd
kts
Gust
kts
19/11:30pm 20.9 22.2 17.5 81 2.1 ESE 7 11 4 6 1013.3 1013.2 0.0
19/11:00pm 21.9 23.3 18.7 82 2.0 ESE 9 11 5 6 1013.3 1013.2 0.0
19/10:30pm 21.9 23.0 18.1 79 2.4 SE 9 11 5 6 1013.4 1013.3 0.0
19/10:00pm 22.4 23.3 17.5 74 3.0 ESE 9 13 5 7 1013.2 1013.1 0.0
19/09:30pm 23.1 23.4 18.0 73 3.2 ESE 13 15 7 8 1012.9 1012.8 0.0
19/09:00pm 23.8 23.8 18.0 70 3.6 E 15 20 8 11 1012.5 1012.4 0.0
19/08:30pm 24.1 24.1 18.1 69 3.8 E 15 20 8 11 1012.0 1011.9 0.0
19/08:00pm 24.4 24.0 18.1 68 4.0 E 17 24 9 13 1011.4 1011.3 0.0
19/07:30pm 25.1 23.8 18.1 65 4.4 ENE 22 32 12 17 1011.0 1010.9 0.0
19/07:00pm 25.7 24.7 17.9 62 4.9 ENE 20 30 11 16 1010.7 1010.6 0.0
19/06:30pm 26.5 24.6 17.6 58 5.6 ENE 24 33 13 18 1010.2 1010.1 0.0
19/06:00pm 27.7 24.6 17.5 53 6.4 ENE 30 37 16 20 1009.8 1009.7 0.0
19/05:30pm 28.8 25.6 17.3 49 7.3 ENE 30 37 16 20 1009.4 1009.3 0.0
19/05:00pm 30.1 26.2 16.5 44 8.5 ENE 32 37 17 20 1009.0 1008.9 0.0
19/04:30pm 31.9 27.7 15.8 38 10.0 ENE 32 39 17 21 1008.7 1008.6 0.0
19/04:00pm 32.3 27.8 14.9 35 10.7 ENE 32 41 17 22 1008.6 1008.5 0.0
19/03:30pm 34.4 31.6 11.5 25 13.5 E 17 32 9 17 1008.7 1008.6 0.0
19/03:00pm 34.4 32.1 8.9 21 14.5 N 11 19 6 10 1009.2 1009.1 0.0
19/02:30pm 34.9 32.5 10.0 22 14.4 N 13 26 7 14 1009.6 1009.5 0.0
19/02:00pm 34.0 31.9 11.2 25 13.4 N 13 20 7 11 1010.0 1009.9 0.0
19/01:30pm 34.2 32.7 13.1 28 12.8 N 13 20 7 11 1010.7 1010.6 0.0
19/01:00pm 32.8 31.5 12.4 29 12.1 WNW 11 19 6 10 1011.6 1011.5 0.0
19/12:30pm 31.9 30.3 12.7 31 11.4 NW 13 24 7 13 1012.4 1012.3 0.0
19/12:00pm 30.2 28.8 13.5 36 10.0 NW 13 19 7 10 1013.2 1013.1 0.0
19/11:30am 29.6 29.0 13.4 37 9.7 NW 9 20 5 11 1013.9 1013.8 0.0
19/11:00am 28.2 27.4 14.1 42 8.4 N 11 17 6 9 1014.6 1014.5 0.0
19/10:30am 28.1 28.1 15.1 45 7.9 WNW 9 17 5 9 1015.2 1015.1 0.0
19/10:00am 26.1 25.1 14.6 49 6.9 W 13 22 7 12 1015.8 1015.7 0.0
19/09:30am 25.5 25.0 14.9 52 6.4 WNW 11 19 6 10 1016.2 1016.1 0.0
19/09:00am 23.8 22.8 14.5 56 5.5 N 13 20 7 11 1016.7 1016.6 0.0
19/08:30am 22.8 22.4 15.1 62 4.6 NW 11 17 6 9 1016.9 1016.8 0.0
19/08:00am 21.9 22.4 15.0 65 4.1 SW 6 9 3 5 1017.2 1017.1 0.0
19/07:30am 21.0 21.5 15.1 69 3.5 SSW 6 7 3 4 1017.3 1017.2 0.0
19/07:00am 19.8 20.1 15.0 74 2.8 ESE 7 9 4 5 1017.3 1017.2 0.0
19/06:30am 18.3 19.8 14.6 79 2.1 CALM 0 0 0 0 1017.0 1016.9 0.0
19/06:00am 17.1 18.6 14.7 86 1.4 CALM 0 0 0 0 1016.9 1016.8 0.0
19/05:30am 14.6 15.6 13.1 91 0.8 CALM 0 0 0 0 1016.6 1016.5 0.0
19/05:00am 14.4 15.2 12.6 89 1.0 CALM 0 0 0 0 1016.2 1016.1 0.0
19/04:30am 14.7 15.7 13.1 90 0.9 CALM 0 0 0 0 1015.9 1015.8 0.0
19/04:00am 14.7 15.5 12.6 87 1.1 CALM 0 0 0 0 1015.6 1015.5 0.0
19/03:30am 15.2 16.2 13.1 87 1.2 CALM 0 0 0 0 1015.6 1015.5 0.0
19/03:00am 15.6 16.7 13.4 87 1.2 CALM 0 0 0 0 1015.6 1015.5 0.0
19/02:30am 15.8 16.9 13.5 86 1.3 CALM 0 0 0 0 1015.5 1015.4 0.0
19/02:00am 16.2 17.4 13.7 85 1.4 CALM 0 0 0 0 1015.7 1015.6 0.0
19/01:30am 16.1 17.2 13.6 85 1.4 CALM 0 0 0 0 1015.6 1015.5 0.0
19/01:00am 17.5 18.7 13.8 79 2.1 CALM 0 0 0 0 1015.9 1015.8 0.0
19/12:30am 18.1 19.5 14.4 79 2.1 CALM 0 0 0 0 1016.1 1016.0 0.0
19/12:00am 18.2 19.5 14.1 77 2.3 CALM 0 0 0 0 1016.5 1016.4 0.0
 
Date/Time
EST
Temp
°C
App
Temp
°C
Dew
Point
°C
Rel
Hum
%
Delta-T
°C
Wind Press
QNH
hPa
Press
MSL
hPa
Rain since
9am
mm
Dir  Spd
km/h
Gust
km/h
Spd
kts
Gust
kts
18/11:30pm 18.8 19.0 14.1 74 2.7 ESE 6 7 3 4 1016.8 1016.7 0.0
18/11:00pm 19.1 18.3 14.1 73 2.9 ESE 11 20 6 11 1016.9 1016.8 0.0
18/10:30pm 20.3 19.8 14.9 71 3.2 E 11 13 6 7 1017.1 1017.0 0.0
18/10:00pm 20.6 20.9 14.9 70 3.3 ENE 7 11 4 6 1017.3 1017.2 0.0
18/09:30pm 20.9 20.4 14.8 68 3.6 ENE 11 17 6 9 1017.3 1017.2 0.0
18/09:00pm 20.9 19.0 14.3 66 3.8 ENE 17 24 9 13 1017.1 1017.0 0.0
18/08:30pm 21.3 19.1 14.5 65 4.0 ENE 19 28 10 15 1016.8 1016.7 0.0
18/08:00pm 21.6 19.2 14.3 63 4.3 ENE 20 32 11 17 1016.7 1016.6 0.0
18/07:30pm 22.1 19.3 14.2 61 4.6 ENE 22 30 12 16 1016.7 1016.6 0.0
18/07:00pm 22.6 19.4 14.2 59 4.9 ENE 24 33 13 18 1016.4 1016.3 0.0
18/06:30pm 23.2 19.8 13.7 55 5.5 ENE 24 32 13 17 1016.3 1016.2 0.0
18/06:00pm 24.1 19.6 12.7 49 6.6 NE 28 33 15 18 1015.9 1015.8 0.0
18/05:30pm 25.4 21.2 11.2 41 8.0 NE 24 33 13 18 1015.4 1015.3 0.0
18/05:00pm 26.4 21.7 10.5 37 8.9 ENE 26 33 14 18 1015.0 1014.9 0.0
18/04:30pm 27.1 22.4 10.8 36 9.2 E 26 37 14 20 1014.8 1014.7 0.0
18/04:00pm 27.9 23.6 10.6 34 9.8 ENE 24 35 13 19 1014.8 1014.7 0.0
18/03:30pm 28.1 23.3 10.3 33 10.0 ENE 26 33 14 18 1014.8 1014.7 0.0
18/03:00pm 28.1 24.8 10.8 34 9.8 ENE 19 30 10 16 1014.8 1014.7 0.0
18/02:30pm 28.4 24.1 10.6 33 10.1 ENE 24 35 13 19 1014.9 1014.8 0.0
18/02:00pm 28.9 24.6 10.6 32 10.4 E 24 33 13 18 1015.1 1015.0 0.0
18/01:30pm 28.0 24.6 10.7 34 9.8 ENE 19 32 10 17 1015.6 1015.5 0.0
18/01:00pm 28.3 24.0 10.9 34 9.9 ENE 24 43 13 23 1015.8 1015.7 0.0
18/12:30pm 28.6 25.4 11.2 34 10.0 E 19 32 10 17 1016.2 1016.1 0.0
18/12:00pm 27.5 24.4 10.2 34 9.7 E 17 32 9 17 1016.5 1016.4 0.0
18/11:30am 28.5 24.7 11.1 34 9.9 E 22 32 12 17 1017.0 1016.9 0.0
18/11:00am 27.1 23.2 10.8 36 9.2 ENE 22 37 12 20 1017.6 1017.5 0.0
18/10:30am 27.4 23.7 11.4 37 9.1 ENE 22 35 12 19 1017.9 1017.8 0.0

Latest Capital City Observations: Canberra | Sydney | Melbourne | Brisbane | Adelaide | Perth | Hobart | Darwin

Other formats

Comma delimited format used in spreadsheet applications
http://www.bom.gov.au/fwo/IDQ60901/IDQ60901.94568.axf

JavaScript Object Notation format (JSON) in row-major order
http://www.bom.gov.au/fwo/IDQ60901/IDQ60901.94568.json

Data quality

Most of these data are generated automatically and are frequently updated. Quality checks on data are not normally performed. It is possible for incorrect values to appear. Refer to information at About Latest Weather Observations and please check the disclaimer before using these data.